sensor_id;sensor_type;location;lat;lon;timestamp;temperature;humidity
29663;DHT22;16578;53.266;7.920;2023-10-19T00:00:45;12.20;74.10
29663;DHT22;16578;53.266;7.920;2023-10-19T00:03:14;12.20;74.30
29663;DHT22;16578;53.266;7.920;2023-10-19T00:05:40;12.20;74.50
29663;DHT22;16578;53.266;7.920;2023-10-19T00:08:07;12.10;74.60
29663;DHT22;16578;53.266;7.920;2023-10-19T00:10:54;12.10;75.20
29663;DHT22;16578;53.266;7.920;2023-10-19T00:13:39;12.10;75.20
29663;DHT22;16578;53.266;7.920;2023-10-19T00:16:08;12.00;75.40
29663;DHT22;16578;53.266;7.920;2023-10-19T00:18:47;12.00;75.50
29663;DHT22;16578;53.266;7.920;2023-10-19T00:21:14;11.90;76.00
29663;DHT22;16578;53.266;7.920;2023-10-19T00:23:51;11.90;76.10
29663;DHT22;16578;53.266;7.920;2023-10-19T00:26:20;11.80;76.30
29663;DHT22;16578;53.266;7.920;2023-10-19T00:28:49;11.80;76.70
29663;DHT22;16578;53.266;7.920;2023-10-19T00:31:18;11.80;76.50
29663;DHT22;16578;53.266;7.920;2023-10-19T00:33:45;11.70;77.20
29663;DHT22;16578;53.266;7.920;2023-10-19T00:36:12;11.70;77.10
29663;DHT22;16578;53.266;7.920;2023-10-19T00:38:41;11.70;77.20
29663;DHT22;16578;53.266;7.920;2023-10-19T00:41:09;11.60;77.60
29663;DHT22;16578;53.266;7.920;2023-10-19T00:43:35;11.60;77.30
29663;DHT22;16578;53.266;7.920;2023-10-19T00:46:18;11.60;77.70
29663;DHT22;16578;53.266;7.920;2023-10-19T00:48:56;11.60;77.90
29663;DHT22;16578;53.266;7.920;2023-10-19T00:51:37;11.50;78.20
29663;DHT22;16578;53.266;7.920;2023-10-19T00:56:43;11.50;78.50
29663;DHT22;16578;53.266;7.920;2023-10-19T00:59:15;11.40;78.30
29663;DHT22;16578;53.266;7.920;2023-10-19T01:01:55;11.40;78.70
29663;DHT22;16578;53.266;7.920;2023-10-19T01:04:40;11.40;78.80
29663;DHT22;16578;53.266;7.920;2023-10-19T01:07:11;11.40;79.30
29663;DHT22;16578;53.266;7.920;2023-10-19T01:09:41;11.30;79.40
29663;DHT22;16578;53.266;7.920;2023-10-19T01:12:09;11.30;79.40
29663;DHT22;16578;53.266;7.920;2023-10-19T01:15:13;11.30;79.50
29663;DHT22;16578;53.266;7.920;2023-10-19T01:17:44;11.20;79.80
29663;DHT22;16578;53.266;7.920;2023-10-19T01:20:14;11.20;79.90
29663;DHT22;16578;53.266;7.920;2023-10-19T01:22:51;11.20;79.90
29663;DHT22;16578;53.266;7.920;2023-10-19T01:25:19;11.20;79.90
29663;DHT22;16578;53.266;7.920;2023-10-19T01:27:49;11.10;79.80
29663;DHT22;16578;53.266;7.920;2023-10-19T01:30:19;11.10;80.20
29663;DHT22;16578;53.266;7.920;2023-10-19T01:32:45;11.10;80.30
29663;DHT22;16578;53.266;7.920;2023-10-19T01:35:10;11.10;80.20
29663;DHT22;16578;53.266;7.920;2023-10-19T01:37:36;11.10;80.80
29663;DHT22;16578;53.266;7.920;2023-10-19T01:40:03;11.10;80.40
29663;DHT22;16578;53.266;7.920;2023-10-19T01:42:30;11.10;80.70
29663;DHT22;16578;53.266;7.920;2023-10-19T01:44:56;11.10;80.70
29663;DHT22;16578;53.266;7.920;2023-10-19T01:47:22;11.10;80.80
29663;DHT22;16578;53.266;7.920;2023-10-19T01:49:48;11.10;80.80
29663;DHT22;16578;53.266;7.920;2023-10-19T01:52:17;11.10;80.80
29663;DHT22;16578;53.266;7.920;2023-10-19T01:54:43;11.10;81.10
29663;DHT22;16578;53.266;7.920;2023-10-19T01:57:09;11.10;81.10
29663;DHT22;16578;53.266;7.920;2023-10-19T01:59:35;11.10;80.90
29663;DHT22;16578;53.266;7.920;2023-10-19T02:02:00;11.10;81.20
29663;DHT22;16578;53.266;7.920;2023-10-19T02:04:27;11.10;81.80
29663;DHT22;16578;53.266;7.920;2023-10-19T02:06:53;11.10;81.80
29663;DHT22;16578;53.266;7.920;2023-10-19T02:09:19;11.00;81.30
29663;DHT22;16578;53.266;7.920;2023-10-19T02:11:52;11.00;81.60
29663;DHT22;16578;53.266;7.920;2023-10-19T02:14:25;11.00;81.80
29663;DHT22;16578;53.266;7.920;2023-10-19T02:16:55;11.00;81.90
29663;DHT22;16578;53.266;7.920;2023-10-19T02:19:23;11.00;82.20
29663;DHT22;16578;53.266;7.920;2023-10-19T02:21:57;11.00;81.90
29663;DHT22;16578;53.266;7.920;2023-10-19T02:24:24;11.00;81.80
29663;DHT22;16578;53.266;7.920;2023-10-19T02:26:52;11.00;82.20
29663;DHT22;16578;53.266;7.920;2023-10-19T02:29:18;11.00;82.10
29663;DHT22;16578;53.266;7.920;2023-10-19T02:31:45;11.00;82.40
29663;DHT22;16578;53.266;7.920;2023-10-19T02:34:12;11.00;82.00
29663;DHT22;16578;53.266;7.920;2023-10-19T02:36:40;11.00;82.50
29663;DHT22;16578;53.266;7.920;2023-10-19T02:39:08;11.00;82.30
29663;DHT22;16578;53.266;7.920;2023-10-19T02:41:34;11.00;82.30
29663;DHT22;16578;53.266;7.920;2023-10-19T02:44:23;11.00;82.30
29663;DHT22;16578;53.266;7.920;2023-10-19T02:46:52;11.00;82.80
29663;DHT22;16578;53.266;7.920;2023-10-19T02:49:20;11.00;82.50
29663;DHT22;16578;53.266;7.920;2023-10-19T02:51:47;11.00;85.10
29663;DHT22;16578;53.266;7.920;2023-10-19T02:54:14;11.00;82.80
29663;DHT22;16578;53.266;7.920;2023-10-19T02:56:45;11.00;82.40
29663;DHT22;16578;53.266;7.920;2023-10-19T02:59:15;11.00;82.70
29663;DHT22;16578;53.266;7.920;2023-10-19T03:01:42;11.00;83.30
29663;DHT22;16578;53.266;7.920;2023-10-19T03:04:14;10.90;83.10
29663;DHT22;16578;53.266;7.920;2023-10-19T03:06:41;10.90;83.10
29663;DHT22;16578;53.266;7.920;2023-10-19T03:09:08;10.90;84.00
29663;DHT22;16578;53.266;7.920;2023-10-19T03:11:55;10.90;83.30
29663;DHT22;16578;53.266;7.920;2023-10-19T03:14:25;10.80;84.50
29663;DHT22;16578;53.266;7.920;2023-10-19T03:16:52;10.90;83.20
29663;DHT22;16578;53.266;7.920;2023-10-19T03:19:20;10.90;83.00
29663;DHT22;16578;53.266;7.920;2023-10-19T03:21:45;10.90;83.50
29663;DHT22;16578;53.266;7.920;2023-10-19T03:24:18;10.90;83.40
29663;DHT22;16578;53.266;7.920;2023-10-19T03:27:07;10.90;83.60
29663;DHT22;16578;53.266;7.920;2023-10-19T03:29:46;10.90;83.50
29663;DHT22;16578;53.266;7.920;2023-10-19T03:32:14;10.90;83.50
29663;DHT22;16578;53.266;7.920;2023-10-19T03:34:42;10.90;83.30
29663;DHT22;16578;53.266;7.920;2023-10-19T03:37:12;10.90;83.60
29663;DHT22;16578;53.266;7.920;2023-10-19T03:39:40;10.90;83.40
29663;DHT22;16578;53.266;7.920;2023-10-19T03:42:06;10.90;83.60
29663;DHT22;16578;53.266;7.920;2023-10-19T03:44:33;10.90;83.60
29663;DHT22;16578;53.266;7.920;2023-10-19T03:47:24;10.90;83.40
29663;DHT22;16578;53.266;7.920;2023-10-19T03:50:01;10.90;83.80
29663;DHT22;16578;53.266;7.920;2023-10-19T03:52:31;10.90;83.40
29663;DHT22;16578;53.266;7.920;2023-10-19T03:54:57;10.90;83.50
29663;DHT22;16578;53.266;7.920;2023-10-19T03:57:23;11.00;83.50
29663;DHT22;16578;53.266;7.920;2023-10-19T03:59:49;10.90;83.70
29663;DHT22;16578;53.266;7.920;2023-10-19T04:02:16;10.90;83.70
29663;DHT22;16578;53.266;7.920;2023-10-19T04:04:43;11.00;83.80
29663;DHT22;16578;53.266;7.920;2023-10-19T04:07:13;10.90;83.80
29663;DHT22;16578;53.266;7.920;2023-10-19T04:09:48;10.90;84.60
29663;DHT22;16578;53.266;7.920;2023-10-19T04:12:36;10.90;83.90
29663;DHT22;16578;53.266;7.920;2023-10-19T04:15:06;10.90;83.90
29663;DHT22;16578;53.266;7.920;2023-10-19T04:17:45;10.90;83.90
29663;DHT22;16578;53.266;7.920;2023-10-19T04:20:12;10.90;83.60
29663;DHT22;16578;53.266;7.920;2023-10-19T04:22:47;10.90;84.00
29663;DHT22;16578;53.266;7.920;2023-10-19T04:25:14;10.90;83.90
29663;DHT22;16578;53.266;7.920;2023-10-19T04:27:45;10.90;83.80
29663;DHT22;16578;53.266;7.920;2023-10-19T04:30:12;10.90;84.30
29663;DHT22;16578;53.266;7.920;2023-10-19T04:32:50;10.90;84.10
29663;DHT22;16578;53.266;7.920;2023-10-19T04:35:16;10.90;84.10
29663;DHT22;16578;53.266;7.920;2023-10-19T04:37:52;10.90;84.40
29663;DHT22;16578;53.266;7.920;2023-10-19T04:40:18;10.80;84.10
29663;DHT22;16578;53.266;7.920;2023-10-19T04:42:45;10.80;84.00
29663;DHT22;16578;53.266;7.920;2023-10-19T04:45:11;10.80;84.40
29663;DHT22;16578;53.266;7.920;2023-10-19T04:47:37;10.80;84.20
29663;DHT22;16578;53.266;7.920;2023-10-19T04:50:04;10.80;83.90
29663;DHT22;16578;53.266;7.920;2023-10-19T04:52:31;10.80;84.00
29663;DHT22;16578;53.266;7.920;2023-10-19T04:54:57;10.80;84.40
29663;DHT22;16578;53.266;7.920;2023-10-19T04:57:23;10.80;84.50
29663;DHT22;16578;53.266;7.920;2023-10-19T04:59:48;10.80;84.20
29663;DHT22;16578;53.266;7.920;2023-10-19T05:02:14;10.80;84.10
29663;DHT22;16578;53.266;7.920;2023-10-19T05:04:40;10.80;84.30
29663;DHT22;16578;53.266;7.920;2023-10-19T05:07:09;10.80;84.30
29663;DHT22;16578;53.266;7.920;2023-10-19T05:09:38;10.80;84.50
29663;DHT22;16578;53.266;7.920;2023-10-19T05:12:07;10.80;85.80
29663;DHT22;16578;53.266;7.920;2023-10-19T05:14:40;10.70;84.40
29663;DHT22;16578;53.266;7.920;2023-10-19T05:17:07;10.70;84.40
29663;DHT22;16578;53.266;7.920;2023-10-19T05:19:35;10.70;84.20
29663;DHT22;16578;53.266;7.920;2023-10-19T05:22:05;10.70;84.20
29663;DHT22;16578;53.266;7.920;2023-10-19T05:24:31;10.70;84.30
29663;DHT22;16578;53.266;7.920;2023-10-19T05:26:57;10.70;84.30
29663;DHT22;16578;53.266;7.920;2023-10-19T05:29:23;10.70;84.60
29663;DHT22;16578;53.266;7.920;2023-10-19T05:31:52;10.70;84.70
29663;DHT22;16578;53.266;7.920;2023-10-19T05:34:24;10.70;84.40
29663;DHT22;16578;53.266;7.920;2023-10-19T05:36:52;10.70;84.50
29663;DHT22;16578;53.266;7.920;2023-10-19T05:39:19;10.70;84.40
29663;DHT22;16578;53.266;7.920;2023-10-19T05:41:45;10.70;84.90
29663;DHT22;16578;53.266;7.920;2023-10-19T05:44:11;10.70;84.60
29663;DHT22;16578;53.266;7.920;2023-10-19T05:46:36;10.70;84.80
29663;DHT22;16578;53.266;7.920;2023-10-19T05:49:05;10.70;84.70
29663;DHT22;16578;53.266;7.920;2023-10-19T05:51:31;10.60;84.80
29663;DHT22;16578;53.266;7.920;2023-10-19T05:53:57;10.60;84.80
29663;DHT22;16578;53.266;7.920;2023-10-19T05:56:30;10.70;84.60
29663;DHT22;16578;53.266;7.920;2023-10-19T05:58:56;10.60;84.80
29663;DHT22;16578;53.266;7.920;2023-10-19T06:01:23;10.60;84.80
29663;DHT22;16578;53.266;7.920;2023-10-19T06:03:49;10.60;84.90
29663;DHT22;16578;53.266;7.920;2023-10-19T06:06:16;10.60;85.10
29663;DHT22;16578;53.266;7.920;2023-10-19T06:08:41;10.60;84.90
29663;DHT22;16578;53.266;7.920;2023-10-19T06:11:07;10.60;84.80
29663;DHT22;16578;53.266;7.920;2023-10-19T06:13:32;10.70;85.10
29663;DHT22;16578;53.266;7.920;2023-10-19T06:15:58;10.60;85.40
29663;DHT22;16578;53.266;7.920;2023-10-19T06:18:23;10.60;85.20
29663;DHT22;16578;53.266;7.920;2023-10-19T06:20:49;10.60;85.80
29663;DHT22;16578;53.266;7.920;2023-10-19T06:23:16;10.60;85.10
29663;DHT22;16578;53.266;7.920;2023-10-19T06:25:43;10.70;85.00
29663;DHT22;16578;53.266;7.920;2023-10-19T06:28:10;10.60;84.90
29663;DHT22;16578;53.266;7.920;2023-10-19T06:30:37;10.60;85.10
29663;DHT22;16578;53.266;7.920;2023-10-19T06:33:03;10.70;85.00
29663;DHT22;16578;53.266;7.920;2023-10-19T06:35:30;10.70;85.30
29663;DHT22;16578;53.266;7.920;2023-10-19T06:38:00;10.60;85.30
29663;DHT22;16578;53.266;7.920;2023-10-19T06:40:27;10.70;85.20
29663;DHT22;16578;53.266;7.920;2023-10-19T06:42:57;10.70;85.20
29663;DHT22;16578;53.266;7.920;2023-10-19T06:45:23;10.60;85.10
29663;DHT22;16578;53.266;7.920;2023-10-19T06:47:51;10.60;85.30
29663;DHT22;16578;53.266;7.920;2023-10-19T06:50:19;10.60;85.50
29663;DHT22;16578;53.266;7.920;2023-10-19T06:52:45;10.60;85.30
29663;DHT22;16578;53.266;7.920;2023-10-19T06:55:14;10.60;85.30
29663;DHT22;16578;53.266;7.920;2023-10-19T06:57:42;10.70;85.30
29663;DHT22;16578;53.266;7.920;2023-10-19T07:00:12;10.70;85.30
29663;DHT22;16578;53.266;7.920;2023-10-19T07:02:49;10.70;85.50
29663;DHT22;16578;53.266;7.920;2023-10-19T07:05:16;10.70;85.30
29663;DHT22;16578;53.266;7.920;2023-10-19T07:07:50;10.70;85.30
29663;DHT22;16578;53.266;7.920;2023-10-19T07:10:17;10.70;85.20
29663;DHT22;16578;53.266;7.920;2023-10-19T07:12:53;10.70;85.40
29663;DHT22;16578;53.266;7.920;2023-10-19T07:15:20;10.70;85.60
29663;DHT22;16578;53.266;7.920;2023-10-19T07:17:48;10.70;85.30
29663;DHT22;16578;53.266;7.920;2023-10-19T07:20:15;10.70;85.50
29663;DHT22;16578;53.266;7.920;2023-10-19T07:22:53;10.70;85.40
29663;DHT22;16578;53.266;7.920;2023-10-19T07:25:20;10.70;85.30
29663;DHT22;16578;53.266;7.920;2023-10-19T07:27:50;10.70;85.40
29663;DHT22;16578;53.266;7.920;2023-10-19T07:30:20;10.70;85.20
29663;DHT22;16578;53.266;7.920;2023-10-19T07:32:52;10.70;85.20
29663;DHT22;16578;53.266;7.920;2023-10-19T07:35:24;10.70;85.20
29663;DHT22;16578;53.266;7.920;2023-10-19T07:37:51;10.80;85.50
29663;DHT22;16578;53.266;7.920;2023-10-19T07:40:17;10.80;85.20
29663;DHT22;16578;53.266;7.920;2023-10-19T07:42:44;10.80;85.40
29663;DHT22;16578;53.266;7.920;2023-10-19T07:45:10;10.80;85.30
29663;DHT22;16578;53.266;7.920;2023-10-19T07:47:40;10.80;85.30
29663;DHT22;16578;53.266;7.920;2023-10-19T07:50:08;10.80;85.30
29663;DHT22;16578;53.266;7.920;2023-10-19T07:52:43;10.80;85.30
29663;DHT22;16578;53.266;7.920;2023-10-19T07:55:10;10.80;85.40
29663;DHT22;16578;53.266;7.920;2023-10-19T07:57:36;10.90;85.50
29663;DHT22;16578;53.266;7.920;2023-10-19T08:00:02;10.90;85.40
29663;DHT22;16578;53.266;7.920;2023-10-19T08:02:29;10.90;85.60
29663;DHT22;16578;53.266;7.920;2023-10-19T08:04:55;10.90;85.40
29663;DHT22;16578;53.266;7.920;2023-10-19T08:07:21;10.90;85.40
29663;DHT22;16578;53.266;7.920;2023-10-19T08:09:47;10.90;85.40
29663;DHT22;16578;53.266;7.920;2023-10-19T08:12:13;10.90;85.60
29663;DHT22;16578;53.266;7.920;2023-10-19T08:14:39;10.90;85.80
29663;DHT22;16578;53.266;7.920;2023-10-19T08:17:05;10.90;85.60
29663;DHT22;16578;53.266;7.920;2023-10-19T08:19:31;11.00;85.60
29663;DHT22;16578;53.266;7.920;2023-10-19T08:21:57;11.00;85.70
29663;DHT22;16578;53.266;7.920;2023-10-19T08:24:23;11.00;85.60
29663;DHT22;16578;53.266;7.920;2023-10-19T08:26:49;11.00;85.70
29663;DHT22;16578;53.266;7.920;2023-10-19T08:29:16;11.00;85.60
29663;DHT22;16578;53.266;7.920;2023-10-19T08:31:43;11.10;85.60
29663;DHT22;16578;53.266;7.920;2023-10-19T08:34:10;11.10;85.60
29663;DHT22;16578;53.266;7.920;2023-10-19T08:36:37;11.10;85.70
29663;DHT22;16578;53.266;7.920;2023-10-19T08:39:07;11.10;85.60
29663;DHT22;16578;53.266;7.920;2023-10-19T08:41:34;11.10;85.60
29663;DHT22;16578;53.266;7.920;2023-10-19T08:44:09;11.10;86.40
29663;DHT22;16578;53.266;7.920;2023-10-19T08:46:41;11.10;85.60
29663;DHT22;16578;53.266;7.920;2023-10-19T08:49:15;11.10;85.50
29663;DHT22;16578;53.266;7.920;2023-10-19T08:51:45;11.10;85.40
29663;DHT22;16578;53.266;7.920;2023-10-19T08:54:13;11.10;85.50
29663;DHT22;16578;53.266;7.920;2023-10-19T08:56:40;11.20;85.60
29663;DHT22;16578;53.266;7.920;2023-10-19T08:59:10;11.20;85.50
29663;DHT22;16578;53.266;7.920;2023-10-19T09:01:41;11.20;85.50
29663;DHT22;16578;53.266;7.920;2023-10-19T09:04:11;11.20;85.60
29663;DHT22;16578;53.266;7.920;2023-10-19T09:06:37;11.20;85.50
29663;DHT22;16578;53.266;7.920;2023-10-19T09:09:13;11.20;85.50
29663;DHT22;16578;53.266;7.920;2023-10-19T09:11:43;11.20;85.50
29663;DHT22;16578;53.266;7.920;2023-10-19T09:14:08;11.20;85.50
29663;DHT22;16578;53.266;7.920;2023-10-19T09:16:34;11.30;85.60
29663;DHT22;16578;53.266;7.920;2023-10-19T09:19:02;11.30;85.70
29663;DHT22;16578;53.266;7.920;2023-10-19T09:21:27;11.30;85.60
29663;DHT22;16578;53.266;7.920;2023-10-19T09:23:55;11.30;85.60
29663;DHT22;16578;53.266;7.920;2023-10-19T09:26:22;11.30;85.60
29663;DHT22;16578;53.266;7.920;2023-10-19T09:28:48;11.30;85.50
29663;DHT22;16578;53.266;7.920;2023-10-19T09:31:14;11.30;85.60
29663;DHT22;16578;53.266;7.920;2023-10-19T09:33:43;11.30;85.50
29663;DHT22;16578;53.266;7.920;2023-10-19T09:36:13;11.30;85.50
29663;DHT22;16578;53.266;7.920;2023-10-19T09:38:58;11.30;85.50
29663;DHT22;16578;53.266;7.920;2023-10-19T09:41:24;11.40;85.80
29663;DHT22;16578;53.266;7.920;2023-10-19T09:44:01;11.30;85.50
29663;DHT22;16578;53.266;7.920;2023-10-19T09:46:32;11.40;85.50
29663;DHT22;16578;53.266;7.920;2023-10-19T09:48:58;11.30;85.60
29663;DHT22;16578;53.266;7.920;2023-10-19T09:51:24;11.40;85.70
29663;DHT22;16578;53.266;7.920;2023-10-19T09:54:00;11.30;85.60
29663;DHT22;16578;53.266;7.920;2023-10-19T09:56:36;11.40;85.70
29663;DHT22;16578;53.266;7.920;2023-10-19T10:02:12;11.40;85.80
29663;DHT22;16578;53.266;7.920;2023-10-19T10:04:39;11.40;85.90
29663;DHT22;16578;53.266;7.920;2023-10-19T10:07:06;11.40;85.70
29663;DHT22;16578;53.266;7.920;2023-10-19T10:09:42;11.40;85.70
29663;DHT22;16578;53.266;7.920;2023-10-19T10:12:24;11.40;85.70
29663;DHT22;16578;53.266;7.920;2023-10-19T10:14:58;11.40;85.70
29663;DHT22;16578;53.266;7.920;2023-10-19T10:17:25;11.40;85.70
29663;DHT22;16578;53.266;7.920;2023-10-19T10:19:54;11.40;85.70
29663;DHT22;16578;53.266;7.920;2023-10-19T10:22:22;11.50;85.70
29663;DHT22;16578;53.266;7.920;2023-10-19T10:24:54;11.50;85.50
29663;DHT22;16578;53.266;7.920;2023-10-19T10:27:23;11.40;85.60
29663;DHT22;16578;53.266;7.920;2023-10-19T10:32:43;11.50;85.80
29663;DHT22;16578;53.266;7.920;2023-10-19T10:35:09;11.40;85.80
29663;DHT22;16578;53.266;7.920;2023-10-19T10:37:38;11.50;85.80
29663;DHT22;16578;53.266;7.920;2023-10-19T10:40:06;11.50;85.70
29663;DHT22;16578;53.266;7.920;2023-10-19T10:42:31;11.50;85.70
29663;DHT22;16578;53.266;7.920;2023-10-19T10:44:59;11.50;85.70
29663;DHT22;16578;53.266;7.920;2023-10-19T10:47:24;11.50;85.80
29663;DHT22;16578;53.266;7.920;2023-10-19T10:49:56;11.50;85.80
29663;DHT22;16578;53.266;7.920;2023-10-19T10:54:53;11.50;85.80
29663;DHT22;16578;53.266;7.920;2023-10-19T10:57:19;11.60;85.80
29663;DHT22;16578;53.266;7.920;2023-10-19T10:59:45;11.60;86.00
29663;DHT22;16578;53.266;7.920;2023-10-19T11:02:18;11.50;85.80
29663;DHT22;16578;53.266;7.920;2023-10-19T11:04:44;11.60;85.90
29663;DHT22;16578;53.266;7.920;2023-10-19T11:07:18;11.60;85.80
29663;DHT22;16578;53.266;7.920;2023-10-19T11:09:46;11.60;85.80
29663;DHT22;16578;53.266;7.920;2023-10-19T11:12:12;11.50;85.80
29663;DHT22;16578;53.266;7.920;2023-10-19T11:14:55;11.50;85.70
29663;DHT22;16578;53.266;7.920;2023-10-19T11:17:21;11.50;85.70
29663;DHT22;16578;53.266;7.920;2023-10-19T11:19:54;11.50;85.80
29663;DHT22;16578;53.266;7.920;2023-10-19T11:22:21;11.60;85.80
29663;DHT22;16578;53.266;7.920;2023-10-19T11:24:47;11.60;86.00
29663;DHT22;16578;53.266;7.920;2023-10-19T11:27:12;11.60;85.90
29663;DHT22;16578;53.266;7.920;2023-10-19T11:29:38;11.60;85.90
29663;DHT22;16578;53.266;7.920;2023-10-19T11:32:04;11.60;86.00
29663;DHT22;16578;53.266;7.920;2023-10-19T11:34:31;11.60;86.00
29663;DHT22;16578;53.266;7.920;2023-10-19T11:36:59;11.60;85.90
29663;DHT22;16578;53.266;7.920;2023-10-19T11:39:26;11.60;85.90
29663;DHT22;16578;53.266;7.920;2023-10-19T11:41:51;11.60;85.80
29663;DHT22;16578;53.266;7.920;2023-10-19T11:44:18;11.60;85.90
29663;DHT22;16578;53.266;7.920;2023-10-19T11:46:45;11.60;85.80
29663;DHT22;16578;53.266;7.920;2023-10-19T11:49:10;11.60;85.70
29663;DHT22;16578;53.266;7.920;2023-10-19T11:51:37;11.60;85.80
29663;DHT22;16578;53.266;7.920;2023-10-19T11:54:04;11.60;85.80
29663;DHT22;16578;53.266;7.920;2023-10-19T11:56:31;11.60;85.80
29663;DHT22;16578;53.266;7.920;2023-10-19T11:58:57;11.60;86.00
29663;DHT22;16578;53.266;7.920;2023-10-19T12:01:23;11.60;85.90
29663;DHT22;16578;53.266;7.920;2023-10-19T12:03:50;11.60;86.50
29663;DHT22;16578;53.266;7.920;2023-10-19T12:06:16;11.60;85.50
29663;DHT22;16578;53.266;7.920;2023-10-19T12:08:46;11.60;85.50
29663;DHT22;16578;53.266;7.920;2023-10-19T12:11:12;11.50;85.50
29663;DHT22;16578;53.266;7.920;2023-10-19T12:13:41;11.50;85.50
29663;DHT22;16578;53.266;7.920;2023-10-19T12:16:09;11.50;85.60
29663;DHT22;16578;53.266;7.920;2023-10-19T12:18:36;11.50;85.60
29663;DHT22;16578;53.266;7.920;2023-10-19T12:21:03;11.50;85.60
29663;DHT22;16578;53.266;7.920;2023-10-19T12:23:33;11.50;85.60
29663;DHT22;16578;53.266;7.920;2023-10-19T12:25:59;11.50;85.70
29663;DHT22;16578;53.266;7.920;2023-10-19T12:28:29;11.50;85.80
29663;DHT22;16578;53.266;7.920;2023-10-19T12:30:54;11.50;85.80
29663;DHT22;16578;53.266;7.920;2023-10-19T12:33:21;11.50;85.90
29663;DHT22;16578;53.266;7.920;2023-10-19T12:35:47;11.50;85.80
29663;DHT22;16578;53.266;7.920;2023-10-19T12:38:17;11.50;85.80
29663;DHT22;16578;53.266;7.920;2023-10-19T12:40:46;11.50;85.80
29663;DHT22;16578;53.266;7.920;2023-10-19T12:43:13;11.50;85.80
29663;DHT22;16578;53.266;7.920;2023-10-19T12:45:39;11.50;85.80
29663;DHT22;16578;53.266;7.920;2023-10-19T12:48:06;11.50;85.80
29663;DHT22;16578;53.266;7.920;2023-10-19T12:50:34;11.50;85.90
29663;DHT22;16578;53.266;7.920;2023-10-19T12:53:00;11.60;86.00
29663;DHT22;16578;53.266;7.920;2023-10-19T12:55:26;11.50;86.80
29663;DHT22;16578;53.266;7.920;2023-10-19T12:57:56;11.50;85.90
29663;DHT22;16578;53.266;7.920;2023-10-19T13:00:22;11.50;85.90
29663;DHT22;16578;53.266;7.920;2023-10-19T13:02:55;11.60;86.00
29663;DHT22;16578;53.266;7.920;2023-10-19T13:05:32;11.60;86.00
29663;DHT22;16578;53.266;7.920;2023-10-19T13:07:58;11.60;86.00
29663;DHT22;16578;53.266;7.920;2023-10-19T13:10:28;11.60;86.10
29663;DHT22;16578;53.266;7.920;2023-10-19T13:13:04;11.60;86.00
29663;DHT22;16578;53.266;7.920;2023-10-19T13:15:31;11.60;86.00
29663;DHT22;16578;53.266;7.920;2023-10-19T13:17:58;11.60;85.90
29663;DHT22;16578;53.266;7.920;2023-10-19T13:20:30;11.60;85.90
29663;DHT22;16578;53.266;7.920;2023-10-19T13:25:31;11.60;85.90
29663;DHT22;16578;53.266;7.920;2023-10-19T13:28:16;11.60;86.00
29663;DHT22;16578;53.266;7.920;2023-10-19T13:30:45;11.60;86.00
29663;DHT22;16578;53.266;7.920;2023-10-19T13:33:14;11.70;86.00
29663;DHT22;16578;53.266;7.920;2023-10-19T13:35:41;11.60;85.90
29663;DHT22;16578;53.266;7.920;2023-10-19T13:38:08;11.70;85.90
29663;DHT22;16578;53.266;7.920;2023-10-19T13:40:41;11.70;85.90
29663;DHT22;16578;53.266;7.920;2023-10-19T13:43:08;11.70;86.00
29663;DHT22;16578;53.266;7.920;2023-10-19T13:45:35;11.70;86.00
29663;DHT22;16578;53.266;7.920;2023-10-19T13:48:02;11.70;85.90
29663;DHT22;16578;53.266;7.920;2023-10-19T13:50:29;11.70;85.90
29663;DHT22;16578;53.266;7.920;2023-10-19T13:52:55;11.70;85.80
29663;DHT22;16578;53.266;7.920;2023-10-19T13:55:22;11.60;85.70
29663;DHT22;16578;53.266;7.920;2023-10-19T13:57:49;11.70;85.70
29663;DHT22;16578;53.266;7.920;2023-10-19T14:00:16;11.60;85.70
29663;DHT22;16578;53.266;7.920;2023-10-19T14:02:50;11.60;85.70
29663;DHT22;16578;53.266;7.920;2023-10-19T14:05:16;11.60;85.70
29663;DHT22;16578;53.266;7.920;2023-10-19T14:07:41;11.60;85.80
29663;DHT22;16578;53.266;7.920;2023-10-19T14:10:09;11.60;85.80
29663;DHT22;16578;53.266;7.920;2023-10-19T14:12:41;11.60;85.80
29663;DHT22;16578;53.266;7.920;2023-10-19T14:15:15;11.60;85.80
29663;DHT22;16578;53.266;7.920;2023-10-19T14:17:46;11.60;85.90
29663;DHT22;16578;53.266;7.920;2023-10-19T14:20:12;11.60;86.70
29663;DHT22;16578;53.266;7.920;2023-10-19T14:22:45;11.60;85.80
29663;DHT22;16578;53.266;7.920;2023-10-19T14:25:12;11.60;85.90
29663;DHT22;16578;53.266;7.920;2023-10-19T14:27:48;11.60;85.90
29663;DHT22;16578;53.266;7.920;2023-10-19T14:30:21;11.60;86.00
29663;DHT22;16578;53.266;7.920;2023-10-19T14:32:47;11.60;85.90
29663;DHT22;16578;53.266;7.920;2023-10-19T14:35:21;11.60;85.90
29663;DHT22;16578;53.266;7.920;2023-10-19T14:37:48;11.60;85.90
29663;DHT22;16578;53.266;7.920;2023-10-19T14:40:23;11.60;85.90
29663;DHT22;16578;53.266;7.920;2023-10-19T14:42:50;11.60;86.00
29663;DHT22;16578;53.266;7.920;2023-10-19T14:45:19;11.60;86.00
29663;DHT22;16578;53.266;7.920;2023-10-19T14:47:49;11.60;86.00
29663;DHT22;16578;53.266;7.920;2023-10-19T14:50:17;11.60;86.00
29663;DHT22;16578;53.266;7.920;2023-10-19T14:52:48;11.60;86.00
29663;DHT22;16578;53.266;7.920;2023-10-19T14:55:14;11.60;86.00
29663;DHT22;16578;53.266;7.920;2023-10-19T14:57:42;11.60;85.80
29663;DHT22;16578;53.266;7.920;2023-10-19T15:00:10;11.60;85.80
29663;DHT22;16578;53.266;7.920;2023-10-19T15:02:56;11.60;85.70
29663;DHT22;16578;53.266;7.920;2023-10-19T15:05:27;11.50;85.60
29663;DHT22;16578;53.266;7.920;2023-10-19T15:07:53;11.50;85.70
29663;DHT22;16578;53.266;7.920;2023-10-19T15:10:20;11.50;85.70
29663;DHT22;16578;53.266;7.920;2023-10-19T15:12:46;11.50;85.70
29663;DHT22;16578;53.266;7.920;2023-10-19T15:15:12;11.50;85.80
29663;DHT22;16578;53.266;7.920;2023-10-19T15:17:45;11.50;85.80
29663;DHT22;16578;53.266;7.920;2023-10-19T15:20:13;11.50;85.70
29663;DHT22;16578;53.266;7.920;2023-10-19T15:22:42;11.50;85.80
29663;DHT22;16578;53.266;7.920;2023-10-19T15:25:09;11.50;85.80
29663;DHT22;16578;53.266;7.920;2023-10-19T15:27:42;11.50;85.80
29663;DHT22;16578;53.266;7.920;2023-10-19T15:30:11;11.50;85.80
29663;DHT22;16578;53.266;7.920;2023-10-19T15:32:40;11.50;85.80
29663;DHT22;16578;53.266;7.920;2023-10-19T15:35:13;11.50;85.80
29663;DHT22;16578;53.266;7.920;2023-10-19T15:37:46;11.50;85.80
29663;DHT22;16578;53.266;7.920;2023-10-19T15:40:14;11.50;85.70
29663;DHT22;16578;53.266;7.920;2023-10-19T15:42:40;11.50;85.80
29663;DHT22;16578;53.266;7.920;2023-10-19T15:45:09;11.50;85.80
29663;DHT22;16578;53.266;7.920;2023-10-19T15:47:34;11.50;85.80
29663;DHT22;16578;53.266;7.920;2023-10-19T15:50:00;11.50;85.90
29663;DHT22;16578;53.266;7.920;2023-10-19T15:52:26;11.60;86.80
29663;DHT22;16578;53.266;7.920;2023-10-19T15:54:57;11.60;85.80